< < Back
Terminal Aerodrome Forecast


Current Version              Previous Versions:   1  2  3  4  5  6  7  8  9  

Terminal Aerodrome Forecast

631
FTUS44 KOHX 232339
TAFCSV
TAF
KCSV 232339Z 2400/2424 VRB02KT P6SM SCT250
     FM240900 17002KT 5SM BR SCT150
     FM241330 22007KT P6SM SCT040 SCT100 BKN250=

Latest METAR

184
SAUS70 KWBC 240200 RRA
MTRCSV
METAR KCSV 240153Z AUTO 00000KT 10SM CLR 22/19 A3029 RMK AO2 SLP238
T02170189


USA.gov is the U.S. government's official web portal to all federal, state and local government web resources and services.